createdAt,value
2023-05-15T00:01:24.667Z,17.57
2023-05-15T00:03:52.801Z,17.92
2023-05-15T00:06:19.927Z,17.82
2023-05-15T00:08:46.405Z,18.29
2023-05-15T00:11:13.337Z,18.31
2023-05-15T00:13:39.818Z,17.91
2023-05-15T00:16:07.883Z,18.03
2023-05-15T00:18:34.951Z,18.30
2023-05-15T00:21:01.418Z,18.11
2023-05-15T00:23:28.004Z,17.76
2023-05-15T00:25:54.916Z,18.05
2023-05-15T00:28:21.511Z,18.25
2023-05-15T00:30:48.043Z,18.28
2023-05-15T00:33:14.965Z,18.34
2023-05-15T00:35:41.421Z,18.02
2023-05-15T00:38:07.902Z,17.18
2023-05-15T00:40:36.113Z,17.21
2023-05-15T00:43:02.951Z,17.33
2023-05-15T00:45:30.388Z,17.62
2023-05-15T00:47:58.677Z,17.59
2023-05-15T00:50:25.607Z,17.66
2023-05-15T00:52:52.712Z,17.75
2023-05-15T00:55:19.502Z,17.94
2023-05-15T00:57:47.882Z,18.09
2023-05-15T01:00:16.934Z,18.09
2023-05-15T01:02:44.366Z,17.80
2023-05-15T01:05:11.978Z,17.94
2023-05-15T01:07:45.994Z,17.97
2023-05-15T01:10:13.146Z,17.69
2023-05-15T01:12:40.518Z,17.81
2023-05-15T01:15:07.401Z,17.64
2023-05-15T01:17:33.987Z,17.54
2023-05-15T01:20:02.858Z,17.88
2023-05-15T01:22:40.723Z,17.16
2023-05-15T01:25:22.722Z,17.67
2023-05-15T01:27:51.735Z,17.88
2023-05-15T01:30:22.509Z,17.47
2023-05-15T01:33:17.284Z,17.26
2023-05-15T01:35:48.345Z,16.94
2023-05-15T01:38:21.277Z,17.16
2023-05-15T01:40:57.736Z,17.05
2023-05-15T01:43:28.531Z,16.67
2023-05-15T01:45:56.173Z,16.79
2023-05-15T01:48:22.960Z,16.45
2023-05-15T01:50:51.514Z,16.22
2023-05-15T01:53:18.881Z,16.13
2023-05-15T01:55:46.731Z,16.10
2023-05-15T01:58:14.134Z,15.92
2023-05-15T02:00:41.425Z,16.07
2023-05-15T02:03:08.836Z,16.60
2023-05-15T02:05:35.760Z,16.48
2023-05-15T02:08:05.558Z,16.80
2023-05-15T02:10:33.803Z,16.37
2023-05-15T02:13:00.886Z,16.16
2023-05-15T02:15:29.208Z,16.43
2023-05-15T02:17:56.738Z,16.16
2023-05-15T02:20:24.279Z,16.21
2023-05-15T02:22:50.770Z,16.19
2023-05-15T02:25:18.009Z,15.90
2023-05-15T02:27:56.235Z,16.15
2023-05-15T02:30:32.885Z,16.44
2023-05-15T02:33:08.229Z,16.30
2023-05-15T02:35:53.271Z,16.55
2023-05-15T02:38:24.139Z,16.71
2023-05-15T02:40:51.454Z,16.70
2023-05-15T02:43:18.793Z,16.58
2023-05-15T02:45:47.870Z,16.98
2023-05-15T02:48:15.913Z,16.65
2023-05-15T02:50:43.151Z,16.40
2023-05-15T02:53:10.281Z,16.75
2023-05-15T02:55:38.266Z,15.83
2023-05-15T02:58:05.485Z,15.94
2023-05-15T03:00:32.112Z,16.14
2023-05-15T03:02:59.167Z,15.98
2023-05-15T03:05:27.095Z,16.34
2023-05-15T03:07:53.863Z,15.88
2023-05-15T03:10:23.764Z,15.89
2023-05-15T03:12:50.409Z,15.43
2023-05-15T03:15:17.173Z,16.03
2023-05-15T03:17:44.739Z,15.96
2023-05-15T03:20:11.317Z,16.16
2023-05-15T03:22:38.016Z,15.97
2023-05-15T03:25:04.974Z,15.66
2023-05-15T03:27:31.522Z,15.57
2023-05-15T03:29:58.378Z,15.27
2023-05-15T03:32:25.021Z,15.91
2023-05-15T03:34:51.751Z,16.02
2023-05-15T03:37:18.620Z,15.76
2023-05-15T03:39:45.201Z,15.91
2023-05-15T03:42:11.794Z,15.65
2023-05-15T03:44:38.693Z,15.43
2023-05-15T03:47:05.737Z,15.44
2023-05-15T03:49:32.287Z,15.52
2023-05-15T03:51:58.995Z,15.56
2023-05-15T03:54:25.676Z,15.33
2023-05-15T03:56:52.530Z,15.68
2023-05-15T03:59:19.519Z,15.59
2023-05-15T04:02:03.024Z,15.51
2023-05-15T04:04:31.192Z,15.91
2023-05-15T04:06:57.929Z,16.19
2023-05-15T04:09:24.393Z,16.08
2023-05-15T04:11:50.953Z,16.25
2023-05-15T04:14:17.428Z,15.79
2023-05-15T04:16:44.158Z,15.97
2023-05-15T04:19:11.083Z,15.96
2023-05-15T04:21:37.574Z,16.27
2023-05-15T04:24:04.778Z,15.71
2023-05-15T04:26:31.548Z,15.18
2023-05-15T04:29:03.891Z,15.17
2023-05-15T04:31:31.906Z,14.48
2023-05-15T04:33:58.824Z,14.45
2023-05-15T04:36:25.459Z,14.66
2023-05-15T04:38:52.495Z,14.90
2023-05-15T04:41:19.045Z,14.49
2023-05-15T04:43:45.974Z,14.91
2023-05-15T04:46:12.630Z,14.64
2023-05-15T04:48:39.641Z,14.22
2023-05-15T04:51:07.536Z,14.12
2023-05-15T04:53:34.285Z,14.43
2023-05-15T04:56:01.295Z,14.36
2023-05-15T04:58:28.013Z,14.68
2023-05-15T05:00:54.586Z,14.40
2023-05-15T05:03:21.775Z,14.99
2023-05-15T05:05:49.072Z,14.76
2023-05-15T05:08:15.762Z,14.62
2023-05-15T05:10:42.849Z,14.98
2023-05-15T05:13:09.347Z,14.90
2023-05-15T05:15:37.092Z,14.84
2023-05-15T05:18:03.896Z,14.76
2023-05-15T05:20:30.481Z,14.61
2023-05-15T05:22:57.832Z,15.04
2023-05-15T05:25:24.720Z,15.07
2023-05-15T05:27:51.561Z,15.15
2023-05-15T05:30:18.496Z,15.00
2023-05-15T05:32:45.203Z,15.24
2023-05-15T05:35:11.856Z,15.79
2023-05-15T05:37:40.826Z,15.45
2023-05-15T05:40:08.794Z,16.01
2023-05-15T05:42:35.565Z,16.01
2023-05-15T05:45:02.497Z,16.05
2023-05-15T05:47:29.338Z,16.02
2023-05-15T05:49:55.966Z,15.73
2023-05-15T05:52:23.125Z,15.64
2023-05-15T05:54:50.038Z,15.94
2023-05-15T05:57:16.749Z,16.21
2023-05-15T05:59:43.956Z,16.52
2023-05-15T06:02:11.429Z,15.58
2023-05-15T06:04:38.094Z,16.91
2023-05-15T06:07:05.053Z,17.31
2023-05-15T06:09:31.960Z,17.10
2023-05-15T06:11:58.523Z,17.08
2023-05-15T06:14:25.382Z,16.91
2023-05-15T06:16:52.616Z,17.17
2023-05-15T06:19:19.446Z,17.64
2023-05-15T06:21:46.262Z,17.44
2023-05-15T06:24:12.819Z,18.05
2023-05-15T06:26:39.430Z,16.80
2023-05-15T06:29:06.615Z,17.11
2023-05-15T06:31:33.199Z,17.35
2023-05-15T06:33:59.914Z,18.38
2023-05-15T06:36:27.161Z,18.18
2023-05-15T06:38:53.653Z,18.81
2023-05-15T06:41:21.464Z,18.03
2023-05-15T06:43:47.944Z,17.52
2023-05-15T06:46:16.996Z,16.76
2023-05-15T06:48:43.450Z,17.26
2023-05-15T06:51:10.127Z,17.44
2023-05-15T06:53:36.750Z,17.63
2023-05-15T06:56:03.460Z,17.04
2023-05-15T06:58:30.626Z,17.45
2023-05-15T07:00:59.325Z,18.18
2023-05-15T07:03:26.091Z,17.95
2023-05-15T07:05:53.569Z,18.50
2023-05-15T07:08:20.104Z,17.86
2023-05-15T07:10:48.484Z,18.03
2023-05-15T07:13:18.317Z,18.33
2023-05-15T07:15:45.288Z,18.42
2023-05-15T07:18:12.840Z,18.14
2023-05-15T07:20:39.631Z,18.09
2023-05-15T07:23:06.786Z,18.35
2023-05-15T07:25:33.497Z,18.08
2023-05-15T07:28:00.138Z,17.57
2023-05-15T07:30:27.344Z,17.87
2023-05-15T07:32:54.034Z,17.85
2023-05-15T07:35:21.141Z,16.57
2023-05-15T07:37:47.681Z,18.13
2023-05-15T07:40:15.430Z,18.22
2023-05-15T07:42:43.948Z,18.64
2023-05-15T07:45:10.590Z,17.54
2023-05-15T07:47:37.258Z,18.69
2023-05-15T07:50:04.509Z,18.99
2023-05-15T07:52:31.419Z,18.30
2023-05-15T07:54:59.150Z,17.59
2023-05-15T07:57:26.498Z,18.05
2023-05-15T07:59:53.289Z,17.70
2023-05-15T08:02:19.961Z,18.45
2023-05-15T08:04:46.826Z,18.67
2023-05-15T08:07:14.427Z,19.24
2023-05-15T08:09:41.374Z,19.22
2023-05-15T08:12:22.875Z,18.80
2023-05-15T08:14:53.127Z,19.67
2023-05-15T08:17:21.110Z,19.98
2023-05-15T08:19:48.140Z,19.31
2023-05-15T08:22:14.872Z,19.76
2023-05-15T08:24:41.836Z,18.74
2023-05-15T08:27:09.085Z,19.08
2023-05-15T08:29:38.581Z,18.77
2023-05-15T08:32:07.113Z,19.89
2023-05-15T08:34:33.667Z,19.92
2023-05-15T08:37:00.273Z,20.73
2023-05-15T08:39:27.225Z,19.49
2023-05-15T08:42:01.051Z,19.26
2023-05-15T08:44:28.103Z,19.72
2023-05-15T08:46:54.707Z,20.15
2023-05-15T08:49:32.458Z,19.88
2023-05-15T08:51:59.567Z,19.32
2023-05-15T08:54:26.225Z,18.26
2023-05-15T08:56:53.484Z,18.84
2023-05-15T08:59:20.827Z,17.93
2023-05-15T09:01:47.363Z,18.41
2023-05-15T09:04:14.291Z,19.60
2023-05-15T09:06:41.772Z,20.33
2023-05-15T09:09:09.396Z,20.11
2023-05-15T09:11:36.857Z,18.33
2023-05-15T09:14:04.684Z,19.45
2023-05-15T09:16:31.326Z,20.01
2023-05-15T09:18:59.047Z,21.30
2023-05-15T09:21:27.389Z,21.79
2023-05-15T09:23:55.545Z,23.28
2023-05-15T09:26:22.307Z,23.30
2023-05-15T09:28:49.465Z,23.41
2023-05-15T09:31:19.448Z,25.35
2023-05-15T09:33:46.485Z,25.97
2023-05-15T09:36:21.649Z,24.95
2023-05-15T09:38:49.748Z,26.96
2023-05-15T09:41:24.924Z,26.08
2023-05-15T09:43:51.535Z,26.18
2023-05-15T09:46:18.128Z,27.15
2023-05-15T09:48:44.792Z,30.46
2023-05-15T09:51:18.424Z,28.26
2023-05-15T09:53:55.330Z,27.36
2023-05-15T09:56:22.537Z,27.09
2023-05-15T09:58:57.716Z,28.09
2023-05-15T10:01:25.229Z,27.93
2023-05-15T10:04:03.172Z,28.00
2023-05-15T10:06:42.805Z,30.55
2023-05-15T10:09:11.063Z,29.09
2023-05-15T10:11:39.814Z,32.28
2023-05-15T10:14:07.703Z,33.72
2023-05-15T10:16:36.109Z,35.75
2023-05-15T10:19:07.824Z,37.31
2023-05-15T10:21:37.356Z,40.81
2023-05-15T10:24:05.225Z,41.65
2023-05-15T10:26:42.590Z,41.07
2023-05-15T10:29:13.716Z,40.28
2023-05-15T10:31:41.660Z,35.28
2023-05-15T10:34:09.303Z,34.16
2023-05-15T10:36:38.088Z,34.63
2023-05-15T10:39:06.713Z,35.74
2023-05-15T10:41:36.525Z,37.40
2023-05-15T10:44:03.478Z,34.66
2023-05-15T10:46:32.066Z,37.60
2023-05-15T10:49:00.597Z,36.34
2023-05-15T10:51:28.866Z,38.17
2023-05-15T10:54:00.782Z,39.47
2023-05-15T10:56:32.639Z,38.91
2023-05-15T10:59:09.082Z,36.42
2023-05-15T11:01:38.072Z,39.59
2023-05-15T11:04:17.924Z,42.66
2023-05-15T11:06:46.545Z,45.48
2023-05-15T11:09:22.758Z,45.66
2023-05-15T11:11:52.921Z,41.04
2023-05-15T11:14:20.044Z,42.15
2023-05-15T11:16:53.355Z,40.30
2023-05-15T11:19:23.867Z,44.27
2023-05-15T11:22:00.344Z,43.61
2023-05-15T11:24:29.308Z,43.46
2023-05-15T11:27:00.871Z,40.19
2023-05-15T11:29:27.353Z,39.23
2023-05-15T11:31:54.195Z,43.81
2023-05-15T11:34:32.683Z,44.75
2023-05-15T11:37:02.712Z,44.90
2023-05-15T11:39:29.511Z,40.95
2023-05-15T11:41:57.103Z,37.08
2023-05-15T11:44:24.491Z,36.62
2023-05-15T11:46:51.599Z,36.80
2023-05-15T11:49:19.512Z,36.41
2023-05-15T11:51:48.389Z,37.26
2023-05-15T11:54:15.259Z,36.67
2023-05-15T11:56:44.555Z,34.32
2023-05-15T11:59:17.211Z,33.39
2023-05-15T12:01:47.376Z,29.15
2023-05-15T12:04:15.589Z,28.12
2023-05-15T12:06:44.502Z,27.45
2023-05-15T12:09:16.628Z,26.56
2023-05-15T12:11:54.288Z,26.09
2023-05-15T12:14:30.503Z,25.28
2023-05-15T12:17:04.464Z,25.12
2023-05-15T12:19:31.476Z,25.42
2023-05-15T12:21:58.001Z,25.37
2023-05-15T12:24:26.517Z,25.56
2023-05-15T12:26:54.418Z,25.80
2023-05-15T12:29:22.621Z,25.13
2023-05-15T12:31:53.843Z,25.74
2023-05-15T12:34:21.378Z,26.16
2023-05-15T12:36:47.873Z,27.18
2023-05-15T12:39:14.382Z,27.09
2023-05-15T12:41:40.927Z,27.17
2023-05-15T12:44:16.441Z,27.33
2023-05-15T12:46:43.280Z,26.86
2023-05-15T12:49:10.717Z,27.19
2023-05-15T12:51:44.165Z,27.19
2023-05-15T12:54:21.016Z,27.67
2023-05-15T12:56:48.242Z,26.47
2023-05-15T12:59:15.118Z,26.71
2023-05-15T13:01:44.638Z,25.66
2023-05-15T13:04:11.573Z,26.49
2023-05-15T13:06:46.282Z,26.58
2023-05-15T13:09:13.847Z,26.97
2023-05-15T13:11:43.974Z,25.18
2023-05-15T13:14:17.616Z,27.16
2023-05-15T13:16:46.640Z,27.44
2023-05-15T13:19:13.901Z,26.28
2023-05-15T13:21:40.895Z,26.47
2023-05-15T13:24:09.921Z,25.95
2023-05-15T13:26:37.548Z,26.41
2023-05-15T13:29:04.116Z,26.27
2023-05-15T13:31:30.729Z,26.32
2023-05-15T13:33:57.776Z,26.14
2023-05-15T13:36:24.264Z,26.28
2023-05-15T13:38:50.860Z,26.16
2023-05-15T13:41:17.867Z,26.91
2023-05-15T13:43:44.657Z,26.08
2023-05-15T13:46:11.157Z,26.60
2023-05-15T13:48:37.706Z,26.22
2023-05-15T13:51:05.209Z,26.48
2023-05-15T13:53:31.808Z,25.38
2023-05-15T13:55:58.413Z,25.77
2023-05-15T13:58:26.683Z,26.31
2023-05-15T14:00:53.775Z,26.70
2023-05-15T14:03:20.715Z,26.88
2023-05-15T14:05:47.345Z,27.33
2023-05-15T14:08:13.900Z,27.08
2023-05-15T14:10:40.884Z,26.96
2023-05-15T14:13:07.638Z,26.97
2023-05-15T14:15:34.139Z,27.03
2023-05-15T14:18:01.037Z,26.08
2023-05-15T14:20:28.107Z,26.27
2023-05-15T14:22:54.726Z,26.45
2023-05-15T14:25:21.484Z,25.92
2023-05-15T14:27:48.059Z,25.48
2023-05-15T14:30:14.661Z,25.42
2023-05-15T14:32:41.464Z,25.08
2023-05-15T14:35:08.047Z,26.24
2023-05-15T14:37:34.914Z,25.09
2023-05-15T14:40:01.882Z,24.59
2023-05-15T14:42:28.405Z,25.11
2023-05-15T14:44:55.060Z,25.83
2023-05-15T14:47:21.976Z,26.02
2023-05-15T14:49:48.510Z,25.17
2023-05-15T14:52:15.056Z,25.03
2023-05-15T14:54:42.170Z,24.37
2023-05-15T14:57:08.797Z,25.61
2023-05-15T14:59:35.338Z,24.87
2023-05-15T15:02:02.425Z,24.57
2023-05-15T15:04:33.964Z,24.64
2023-05-15T15:07:03.511Z,24.37
2023-05-15T15:09:30.630Z,23.52
2023-05-15T15:11:57.101Z,24.34
2023-05-15T15:14:24.182Z,24.21
2023-05-15T15:16:51.586Z,24.17
2023-05-15T15:19:20.172Z,24.30
2023-05-15T15:21:48.043Z,24.48
2023-05-15T15:24:15.259Z,24.51
2023-05-15T15:26:41.881Z,24.23
2023-05-15T15:29:09.385Z,24.50
2023-05-15T15:31:36.635Z,24.55
2023-05-15T15:34:05.336Z,24.26
2023-05-15T15:36:32.553Z,23.59
2023-05-15T15:38:59.364Z,22.73
2023-05-15T15:41:26.058Z,22.81
2023-05-15T15:43:53.758Z,22.32
2023-05-15T15:46:20.783Z,21.96
2023-05-15T15:48:47.369Z,21.89
2023-05-15T15:51:13.855Z,22.02
2023-05-15T15:53:40.368Z,21.96
2023-05-15T15:56:07.624Z,21.95
2023-05-15T15:58:34.327Z,22.01
2023-05-15T16:01:01.200Z,22.17
2023-05-15T16:03:27.947Z,21.75
2023-05-15T16:05:54.550Z,21.86
2023-05-15T16:08:21.124Z,22.22
2023-05-15T16:10:47.677Z,22.56
2023-05-15T16:13:14.395Z,23.24
2023-05-15T16:15:40.857Z,22.74
2023-05-15T16:18:07.705Z,23.42
2023-05-15T16:20:35.253Z,22.73
2023-05-15T16:23:02.002Z,22.64
2023-05-15T16:25:28.500Z,23.63
2023-05-15T16:27:54.978Z,23.44
2023-05-15T16:30:21.793Z,23.55
2023-05-15T16:32:49.051Z,23.42
2023-05-15T16:35:15.786Z,23.63
2023-05-15T16:37:42.605Z,23.20
2023-05-15T16:40:09.782Z,22.53
2023-05-15T16:42:38.052Z,23.01
2023-05-15T16:45:07.971Z,23.08
2023-05-15T16:47:36.591Z,22.57
2023-05-15T16:50:03.551Z,22.15
2023-05-15T16:52:30.084Z,21.72
2023-05-15T16:54:56.674Z,22.28
2023-05-15T16:57:23.221Z,22.13
2023-05-15T16:59:50.156Z,21.75
2023-05-15T17:02:16.726Z,21.09
2023-05-15T17:04:43.243Z,21.73
2023-05-15T17:07:09.777Z,21.45
2023-05-15T17:09:38.298Z,21.39
2023-05-15T17:12:05.500Z,21.19
2023-05-15T17:14:32.325Z,20.70
2023-05-15T17:16:58.789Z,20.62
2023-05-15T17:19:25.437Z,20.73
2023-05-15T17:21:51.947Z,20.66
2023-05-15T17:24:18.974Z,20.66
2023-05-15T17:26:45.473Z,20.61
2023-05-15T17:29:12.026Z,20.78
2023-05-15T17:31:39.164Z,20.50
2023-05-15T17:34:05.641Z,20.37
2023-05-15T17:36:35.123Z,20.85
2023-05-15T17:39:01.603Z,20.68
2023-05-15T17:41:28.765Z,20.97
2023-05-15T17:43:55.285Z,20.74
2023-05-15T17:46:21.801Z,20.84
2023-05-15T17:48:48.315Z,20.70
2023-05-15T17:51:14.761Z,20.74
2023-05-15T17:53:41.225Z,20.76
2023-05-15T17:56:07.764Z,21.07
2023-05-15T17:58:34.314Z,20.45
2023-05-15T18:01:01.273Z,20.27
2023-05-15T18:03:27.950Z,20.48
2023-05-15T18:05:54.761Z,20.24
2023-05-15T18:08:21.326Z,20.72
2023-05-15T18:10:47.836Z,20.69
2023-05-15T18:13:14.465Z,20.55
2023-05-15T18:15:41.011Z,20.55
2023-05-15T18:18:08.169Z,20.32
2023-05-15T18:20:34.881Z,20.31
2023-05-15T18:23:01.724Z,20.59
2023-05-15T18:25:28.329Z,19.75
2023-05-15T18:27:55.058Z,19.78
2023-05-15T18:30:21.562Z,20.49
2023-05-15T18:32:48.089Z,20.06
2023-05-15T18:35:14.612Z,19.65
2023-05-15T18:37:41.072Z,19.95
2023-05-15T18:40:08.241Z,19.49
2023-05-15T18:42:35.116Z,19.50
2023-05-15T18:45:02.152Z,19.42
2023-05-15T18:47:28.662Z,19.74
2023-05-15T18:49:55.248Z,19.21
2023-05-15T18:52:21.812Z,19.40
2023-05-15T18:54:48.543Z,19.53
2023-05-15T18:57:14.997Z,19.52
2023-05-15T18:59:41.734Z,19.51
2023-05-15T19:02:09.660Z,19.21
2023-05-15T19:04:36.367Z,18.74
2023-05-15T19:07:02.861Z,19.00
2023-05-15T19:09:29.387Z,19.06
2023-05-15T19:11:55.983Z,18.52
2023-05-15T19:14:22.530Z,19.07
2023-05-15T19:16:49.228Z,18.97
2023-05-15T19:19:15.924Z,19.06
2023-05-15T19:21:42.465Z,19.54
2023-05-15T19:24:08.899Z,19.47
2023-05-15T19:26:35.374Z,19.39
2023-05-15T19:29:02.070Z,18.31
2023-05-15T19:31:32.012Z,18.68
2023-05-15T19:33:59.685Z,18.48
2023-05-15T19:36:26.313Z,18.21
2023-05-15T19:38:53.395Z,18.00
2023-05-15T19:41:21.578Z,18.09
2023-05-15T19:43:50.578Z,18.31
2023-05-15T19:46:18.336Z,17.85
2023-05-15T19:48:45.088Z,18.07
2023-05-15T19:51:12.095Z,17.69
2023-05-15T19:53:38.592Z,18.29
2023-05-15T19:56:05.638Z,18.30
2023-05-15T19:58:32.248Z,17.74
2023-05-15T20:00:58.998Z,18.02
2023-05-15T20:03:33.010Z,18.48
2023-05-15T20:06:03.147Z,18.26
2023-05-15T20:08:29.715Z,18.67
2023-05-15T20:10:56.914Z,18.92
2023-05-15T20:13:23.661Z,18.87
2023-05-15T20:15:57.792Z,18.80
2023-05-15T20:18:25.155Z,19.13
2023-05-15T20:20:54.486Z,19.09
2023-05-15T20:23:21.285Z,18.57
2023-05-15T20:25:49.770Z,18.79
2023-05-15T20:28:17.698Z,18.46
2023-05-15T20:30:47.143Z,18.24
2023-05-15T20:33:13.804Z,19.10
2023-05-15T20:35:40.371Z,19.21
2023-05-15T20:38:06.871Z,19.31
2023-05-15T20:40:33.617Z,19.05
2023-05-15T20:43:01.203Z,19.29
2023-05-15T20:45:32.340Z,18.99
2023-05-15T20:47:59.085Z,18.70
2023-05-15T20:50:26.155Z,19.15
2023-05-15T20:52:53.165Z,18.65
2023-05-15T20:55:21.446Z,18.41
2023-05-15T20:57:49.019Z,18.65
2023-05-15T21:00:16.703Z,18.94
2023-05-15T21:02:44.146Z,19.36
2023-05-15T21:05:10.934Z,18.57
2023-05-15T21:07:37.857Z,18.16
2023-05-15T21:10:04.829Z,18.23
2023-05-15T21:12:32.700Z,18.41
2023-05-15T21:14:59.151Z,18.49
2023-05-15T21:17:25.584Z,18.35
2023-05-15T21:19:52.374Z,18.88
2023-05-15T21:22:18.866Z,18.92
2023-05-15T21:24:46.241Z,19.22
2023-05-15T21:27:12.717Z,18.89
2023-05-15T21:29:39.191Z,19.01
2023-05-15T21:32:06.439Z,19.10
2023-05-15T21:34:32.901Z,19.08
2023-05-15T21:37:02.013Z,19.32
2023-05-15T21:39:28.505Z,19.18
2023-05-15T21:41:55.076Z,18.78
2023-05-15T21:44:21.613Z,18.01
2023-05-15T21:46:48.921Z,19.03
2023-05-15T21:49:15.544Z,19.23
2023-05-15T21:51:42.015Z,18.66
2023-05-15T21:54:08.470Z,18.55
2023-05-15T21:56:35.990Z,18.57
2023-05-15T21:59:02.541Z,18.95
2023-05-15T22:01:29.510Z,19.26
2023-05-15T22:03:56.369Z,19.07
2023-05-15T22:06:23.136Z,19.32
2023-05-15T22:08:49.638Z,19.22
2023-05-15T22:11:17.095Z,19.07
2023-05-15T22:13:43.630Z,19.24
2023-05-15T22:16:10.278Z,19.33
2023-05-15T22:18:37.772Z,19.59
2023-05-15T22:21:04.312Z,19.40
2023-05-15T22:23:31.455Z,19.05
2023-05-15T22:25:57.918Z,19.65
2023-05-15T22:28:24.631Z,19.39
2023-05-15T22:30:51.140Z,18.91
2023-05-15T22:33:24.320Z,19.26
2023-05-15T22:35:52.697Z,19.19
2023-05-15T22:38:19.513Z,18.97
2023-05-15T22:40:53.081Z,19.10
2023-05-15T22:43:19.854Z,18.80
2023-05-15T22:45:46.341Z,18.86
2023-05-15T22:48:12.826Z,18.99
2023-05-15T22:50:39.372Z,19.03
2023-05-15T22:53:06.253Z,18.80
2023-05-15T22:55:32.801Z,18.32
2023-05-15T22:57:59.559Z,19.15
2023-05-15T23:00:26.333Z,18.90
2023-05-15T23:02:55.239Z,18.50
2023-05-15T23:05:22.411Z,19.04
2023-05-15T23:07:48.986Z,18.96
2023-05-15T23:10:15.514Z,18.75
2023-05-15T23:12:42.503Z,18.16
2023-05-15T23:15:10.415Z,18.08
2023-05-15T23:17:37.036Z,18.18
2023-05-15T23:20:06.780Z,18.04
2023-05-15T23:22:33.382Z,17.88
2023-05-15T23:24:59.829Z,18.03
2023-05-15T23:27:26.386Z,17.60
2023-05-15T23:29:52.929Z,17.44
2023-05-15T23:32:19.431Z,17.51
2023-05-15T23:34:46.387Z,17.45
2023-05-15T23:37:12.863Z,17.38
2023-05-15T23:39:39.408Z,16.87
2023-05-15T23:42:06.243Z,16.87
2023-05-15T23:44:32.760Z,17.07
2023-05-15T23:46:59.291Z,17.06
2023-05-15T23:49:25.897Z,16.32
2023-05-15T23:51:52.447Z,16.34
2023-05-15T23:54:19.008Z,16.13
2023-05-15T23:56:45.491Z,16.11
2023-05-15T23:59:13.741Z,16.38
